VLG7WJ LEBL-LEVD
Flight info
| Callsign | VLG7WJ |
|---|---|
| Flight time | N/A |
| Altitude | 31000 |
| Route | LOBAR N725 DIRMU/N0447F330 N725 DGO N976 NEA |
| Aircraft | A320/M-SDE3FGHIRWY/LB1 |
Departure
| Time | N/A |
|---|---|
| Airport | Josep Tarradellas Barcelona-El Prat Airport (LEBL) |
Arrival
| Time | 2026-05-05 15:00 |
|---|---|
| Airport | Valladolid Airport (LEVD) |
| Time | Latitude | Longitude | Altitude | Speed | Heading |
|---|---|---|---|---|---|
| 2026-05-05 14:27 | 42.23740 | -1.84979 | 30933 ft | 412 kts | 283° |
| 2026-05-05 14:27 | 42.24534 | -1.88677 | 30932 ft | 411 kts | 283° |
| 2026-05-05 14:27 | 42.26124 | -1.96107 | 30938 ft | 412 kts | 283° |
| 2026-05-05 14:28 | 42.27697 | -2.03486 | 30919 ft | 412 kts | 283° |
| 2026-05-05 14:28 | 42.29274 | -2.10927 | 30952 ft | 412 kts | 283° |
| 2026-05-05 14:29 | 42.30842 | -2.18336 | 30930 ft | 412 kts | 283° |
| 2026-05-05 14:29 | 42.32403 | -2.25743 | 30946 ft | 412 kts | 283° |
| 2026-05-05 14:30 | 42.33968 | -2.33193 | 30941 ft | 412 kts | 283° |
| 2026-05-05 14:30 | 42.35527 | -2.40642 | 30959 ft | 413 kts | 283° |
| 2026-05-05 14:31 | 42.37083 | -2.48101 | 30948 ft | 413 kts | 283° |
| 2026-05-05 14:31 | 42.38633 | -2.55554 | 30970 ft | 413 kts | 283° |
| 2026-05-05 14:32 | 42.40176 | -2.63002 | 30968 ft | 413 kts | 283° |
| 2026-05-05 14:32 | 42.41720 | -2.70485 | 30946 ft | 414 kts | 283° |
| 2026-05-05 14:33 | 42.43255 | -2.77950 | 30901 ft | 414 kts | 283° |
| 2026-05-05 14:33 | 42.44022 | -2.81686 | 30567 ft | 410 kts | 283° |
| 2026-05-05 14:33 | 42.44537 | -2.85438 | 30231 ft | 405 kts | 272° |
| 2026-05-05 14:34 | 42.44402 | -2.89193 | 29928 ft | 402 kts | 260° |
| 2026-05-05 14:34 | 42.43658 | -2.92840 | 29624 ft | 402 kts | 249° |
| 2026-05-05 14:34 | 42.42533 | -2.96273 | 29326 ft | 401 kts | 247° |
| 2026-05-05 14:34 | 42.41377 | -2.99670 | 29024 ft | 400 kts | 246° |
| 2026-05-05 14:35 | 42.40203 | -3.03106 | 28715 ft | 399 kts | 246° |
| 2026-05-05 14:35 | 42.39041 | -3.06506 | 28408 ft | 399 kts | 247° |
| 2026-05-05 14:35 | 42.37886 | -3.09882 | 28101 ft | 397 kts | 247° |
| 2026-05-05 14:35 | 42.36726 | -3.13272 | 27789 ft | 397 kts | 247° |
| 2026-05-05 14:36 | 42.35570 | -3.16648 | 27478 ft | 395 kts | 247° |
| 2026-05-05 14:36 | 42.34422 | -3.19997 | 27167 ft | 395 kts | 247° |
| 2026-05-05 14:36 | 42.33283 | -3.23319 | 26856 ft | 393 kts | 247° |
| 2026-05-05 14:36 | 42.32133 | -3.26671 | 26539 ft | 391 kts | 247° |
| 2026-05-05 14:37 | 42.31001 | -3.29963 | 26226 ft | 390 kts | 247° |
| 2026-05-05 14:37 | 42.29850 | -3.33309 | 25905 ft | 389 kts | 247° |
| 2026-05-05 14:37 | 42.28724 | -3.36577 | 25583 ft | 388 kts | 247° |
| 2026-05-05 14:37 | 42.27583 | -3.39880 | 25244 ft | 387 kts | 248° |
| 2026-05-05 14:38 | 42.26459 | -3.43135 | 24905 ft | 386 kts | 248° |
| 2026-05-05 14:38 | 42.25331 | -3.46399 | 24560 ft | 385 kts | 248° |
| 2026-05-05 14:38 | 42.24194 | -3.49682 | 24200 ft | 383 kts | 248° |
| 2026-05-05 14:38 | 42.23071 | -3.52924 | 23802 ft | 382 kts | 248° |
| 2026-05-05 14:39 | 42.21949 | -3.56163 | 23405 ft | 380 kts | 248° |
| 2026-05-05 14:39 | 42.20822 | -3.59406 | 23004 ft | 377 kts | 248° |
| 2026-05-05 14:39 | 42.19723 | -3.62566 | 22618 ft | 376 kts | 248° |
| 2026-05-05 14:39 | 42.18611 | -3.65760 | 22223 ft | 373 kts | 247° |
| 2026-05-05 14:40 | 42.17501 | -3.68941 | 21825 ft | 370 kts | 247° |
| 2026-05-05 14:40 | 42.16420 | -3.72041 | 21442 ft | 368 kts | 247° |
| 2026-05-05 14:40 | 42.15338 | -3.75138 | 21063 ft | 366 kts | 247° |
| 2026-05-05 14:40 | 42.14245 | -3.78265 | 20671 ft | 364 kts | 247° |
| 2026-05-05 14:41 | 42.13177 | -3.81319 | 20290 ft | 363 kts | 247° |
| 2026-05-05 14:41 | 42.12098 | -3.84400 | 19897 ft | 360 kts | 246° |
| 2026-05-05 14:41 | 42.11040 | -3.87415 | 19526 ft | 358 kts | 246° |
| 2026-05-05 14:41 | 42.09972 | -3.90455 | 19157 ft | 357 kts | 246° |
| 2026-05-05 14:42 | 42.08912 | -3.93473 | 18773 ft | 355 kts | 246° |
| 2026-05-05 14:42 | 42.07868 | -3.96439 | 18407 ft | 353 kts | 246° |
| 2026-05-05 14:42 | 42.06809 | -3.99444 | 18046 ft | 351 kts | 246° |
| 2026-05-05 14:42 | 42.05776 | -4.02375 | 17840 ft | 351 kts | 246° |
| 2026-05-05 14:43 | 42.04733 | -4.05329 | 17445 ft | 349 kts | 246° |
| 2026-05-05 14:43 | 42.03687 | -4.08285 | 17056 ft | 347 kts | 246° |
| 2026-05-05 14:43 | 42.02655 | -4.11196 | 16649 ft | 345 kts | 246° |
| 2026-05-05 14:43 | 42.01584 | -4.14060 | 16267 ft | 343 kts | 245° |
| 2026-05-05 14:44 | 42.00495 | -4.16891 | 15877 ft | 342 kts | 245° |
| 2026-05-05 14:44 | 41.99400 | -4.19732 | 15493 ft | 340 kts | 245° |
| 2026-05-05 14:44 | 41.98320 | -4.22539 | 14953 ft | 341 kts | 245° |
| 2026-05-05 14:44 | 41.97231 | -4.25378 | 14312 ft | 344 kts | 245° |
| 2026-05-05 14:45 | 41.96131 | -4.28244 | 13667 ft | 344 kts | 244° |
| 2026-05-05 14:45 | 41.95061 | -4.31032 | 13024 ft | 331 kts | 244° |
| 2026-05-05 14:45 | 41.94035 | -4.33699 | 12392 ft | 317 kts | 244° |
| 2026-05-05 14:45 | 41.93045 | -4.36271 | 11759 ft | 305 kts | 245° |
| 2026-05-05 14:46 | 41.92094 | -4.38739 | 11128 ft | 294 kts | 245° |
| 2026-05-05 14:46 | 41.91171 | -4.41139 | 10492 ft | 284 kts | 245° |
| 2026-05-05 14:46 | 41.90279 | -4.43457 | 9863 ft | 277 kts | 245° |
| 2026-05-05 14:46 | 41.89411 | -4.45713 | 9236 ft | 273 kts | 245° |
| 2026-05-05 14:47 | 41.88544 | -4.47967 | 8608 ft | 271 kts | 245° |
| 2026-05-05 14:47 | 41.87676 | -4.50219 | 7975 ft | 272 kts | 245° |
| 2026-05-05 14:47 | 41.86800 | -4.52500 | 7356 ft | 277 kts | 245° |
| 2026-05-05 14:47 | 41.85913 | -4.54807 | 6739 ft | 282 kts | 244° |
| 2026-05-05 14:48 | 41.85014 | -4.57140 | 6122 ft | 286 kts | 244° |
| 2026-05-05 14:48 | 41.84097 | -4.59512 | 5504 ft | 287 kts | 244° |
| 2026-05-05 14:48 | 41.83202 | -4.61823 | 5147 ft | 268 kts | 244° |
| 2026-05-05 14:48 | 41.82373 | -4.63956 | 4895 ft | 249 kts | 243° |
| 2026-05-05 14:49 | 41.81598 | -4.65947 | 4640 ft | 233 kts | 243° |
| 2026-05-05 14:49 | 41.80855 | -4.67860 | 4389 ft | 226 kts | 242° |
| 2026-05-05 14:49 | 41.80146 | -4.69674 | 4127 ft | 215 kts | 244° |
| 2026-05-05 14:49 | 41.79483 | -4.71384 | 3981 ft | 197 kts | 243° |
| 2026-05-05 14:50 | 41.78875 | -4.72926 | 4037 ft | 177 kts | 243° |
| 2026-05-05 14:50 | 41.78300 | -4.74284 | 3997 ft | 157 kts | 237° |
| 2026-05-05 14:50 | 41.77679 | -4.75409 | 3969 ft | 145 kts | 231° |
| 2026-05-05 14:50 | 41.77033 | -4.76449 | 3984 ft | 145 kts | 232° |
| 2026-05-05 14:51 | 41.76354 | -4.77448 | 3990 ft | 144 kts | 229° |
| 2026-05-05 14:51 | 41.75647 | -4.78417 | 3905 ft | 145 kts | 227° |
| 2026-05-05 14:51 | 41.74932 | -4.79366 | 3695 ft | 145 kts | 227° |
| 2026-05-05 14:51 | 41.74214 | -4.80333 | 3505 ft | 146 kts | 226° |
| 2026-05-05 14:52 | 41.73531 | -4.81303 | 3328 ft | 141 kts | 224° |
| 2026-05-05 14:52 | 41.72845 | -4.82216 | 3111 ft | 139 kts | 225° |
| 2026-05-05 14:52 | 41.72135 | -4.83167 | 2950 ft | 142 kts | 225° |
| 2026-05-05 14:52 | 41.71457 | -4.84089 | 2796 ft | 136 kts | 226° |
| 2026-05-05 14:53 | 41.70780 | -4.84983 | 3051 ft | 145 kts | 224° |
| 2026-05-05 14:53 | 41.70118 | -4.86137 | 3484 ft | 174 kts | 257° |
| 2026-05-05 14:53 | 41.70226 | -4.87768 | 4034 ft | 187 kts | 296° |
| 2026-05-05 14:53 | 41.71195 | -4.89072 | 4074 ft | 211 kts | 337° |
| 2026-05-05 14:54 | 41.72689 | -4.89141 | 4038 ft | 224 kts | 17° |
| 2026-05-05 14:54 | 41.74033 | -4.88080 | 4009 ft | 227 kts | 49° |
| 2026-05-05 14:54 | 41.74779 | -4.86214 | 4009 ft | 228 kts | 68° |
| 2026-05-05 14:54 | 41.75370 | -4.84247 | 4000 ft | 228 kts | 66° |
| 2026-05-05 14:55 | 41.76223 | -4.82473 | 3985 ft | 226 kts | 45° |
| 2026-05-05 14:55 | 41.77339 | -4.81013 | 3987 ft | 223 kts | 40° |
| 2026-05-05 14:55 | 41.78445 | -4.79663 | 3964 ft | 204 kts | 40° |
| 2026-05-05 14:55 | 41.79475 | -4.78448 | 3949 ft | 189 kts | 40° |
| 2026-05-05 14:56 | 41.80429 | -4.77260 | 3963 ft | 186 kts | 52° |
| 2026-05-05 14:56 | 41.80793 | -4.75641 | 4001 ft | 188 kts | 101° |
| 2026-05-05 14:56 | 41.80125 | -4.74222 | 4017 ft | 182 kts | 150° |
| 2026-05-05 14:56 | 41.79004 | -4.74032 | 3974 ft | 154 kts | 205° |
| 2026-05-05 14:57 | 41.78183 | -4.74811 | 3971 ft | 137 kts | 227° |
| 2026-05-05 14:57 | 41.77545 | -4.75745 | 3965 ft | 136 kts | 230° |
| 2026-05-05 14:57 | 41.76909 | -4.76684 | 3976 ft | 137 kts | 229° |
| 2026-05-05 14:57 | 41.76247 | -4.77608 | 3982 ft | 137 kts | 226° |
| 2026-05-05 14:58 | 41.75579 | -4.78513 | 3873 ft | 136 kts | 225° |
| 2026-05-05 14:58 | 41.74911 | -4.79409 | 3688 ft | 135 kts | 227° |
| 2026-05-05 14:58 | 41.74254 | -4.80305 | 3514 ft | 135 kts | 224° |
| 2026-05-05 14:58 | 41.73585 | -4.81190 | 3322 ft | 136 kts | 229° |
| 2026-05-05 14:59 | 41.72924 | -4.82111 | 3152 ft | 136 kts | 227° |
| 2026-05-05 14:59 | 41.72268 | -4.82991 | 2986 ft | 132 kts | 226° |
| 2026-05-05 14:59 | 41.71620 | -4.83867 | 2809 ft | 132 kts | 228° |
| 2026-05-05 14:59 | 41.71014 | -4.84696 | 2777 ft | 107 kts | 225° |
| 2026-05-05 15:00 | 41.70628 | -4.85217 | 2776 ft | 35 kts | 228° |
| 2026-05-05 15:00 | 41.70582 | -4.85285 | 2775 ft | 8 kts | 243° |
| 2026-05-05 15:00 | 41.70632 | -4.85357 | 2775 ft | 9 kts | 330° |
| 2026-05-05 15:00 | 41.70691 | -4.85382 | 2776 ft | 9 kts | 27° |
| 2026-05-05 15:01 | 41.70748 | -4.85315 | 2776 ft | 12 kts | 46° |
| 2026-05-05 15:01 | 41.70814 | -4.85224 | 2776 ft | 14 kts | 45° |
| 2026-05-05 15:01 | 41.70893 | -4.85117 | 2776 ft | 17 kts | 45° |
| 2026-05-05 15:01 | 41.70982 | -4.84998 | 2776 ft | 18 kts | 46° |
| 2026-05-05 15:02 | 41.71044 | -4.84900 | 2777 ft | 11 kts | 85° |
| 2026-05-05 15:02 | 41.70978 | -4.84853 | 2776 ft | 12 kts | 173° |
| 2026-05-05 15:02 | 41.70893 | -4.84814 | 2776 ft | 13 kts | 136° |
| 2026-05-05 15:02 | 41.70822 | -4.84723 | 2776 ft | 14 kts | 136° |
| 2026-05-05 15:03 | 41.70748 | -4.84626 | 2775 ft | 14 kts | 135° |
| 2026-05-05 15:03 | 41.70713 | -4.84574 | 2775 ft | 3 kts | 114° |
| 2026-05-05 15:03 | 41.70691 | -4.84549 | 2775 ft | 4 kts | 157° |
| 2026-05-05 15:03 | 41.70656 | -4.84537 | 2775 ft | 4 kts | 182° |
| 2026-05-05 15:04 | 41.70652 | -4.84546 | 2775 ft | 1 kts | 248° |
| 2026-05-05 15:04 | 41.70649 | -4.84558 | 2775 ft | 1 kts | 253° |
| 2026-05-05 15:04 | 41.70649 | -4.84559 | 2775 ft | 0 kts | 253° |